Time;durP1;ratioP1;P1;durP2;ratioP2;P2;SDS_P1;SDS_P2;PMS_P1;PMS_P2;Temp;Humidity;BMP_temperature;BMP_pressure;BME280_temperature;BME280_humidity;BME280_pressure;Samples;Min_cycle;Max_cycle;Signal;HPM_P1;HPM_P2
2023/01/29 00:01:46;;;;;;;14.02;7.95;;;;;;;5.23;55.35;101553.41;5109749;28;20390;-76
2023/01/29 00:04:12;;;;;;;13.40;7.60;;;;;;;5.29;54.99;101539.78;5110670;28;21168;-76
2023/01/29 00:06:38;;;;;;;13.35;7.50;;;;;;;5.24;55.08;101545.41;5110743;28;20424;-76
2023/01/29 00:09:04;;;;;;;13.77;6.88;;;;;;;5.03;55.26;101553.06;5109791;28;21102;-76
2023/01/29 00:11:30;;;;;;;11.43;6.80;;;;;;;5.06;55.70;101557.25;5110596;28;20459;-75
2023/01/29 00:13:56;;;;;;;13.18;6.90;;;;;;;5.15;55.37;101560.06;5097854;28;21320;-76
2023/01/29 00:16:22;;;;;;;10.30;6.57;;;;;;;5.21;55.08;101564.03;5114408;28;20442;-76
2023/01/29 00:18:48;;;;;;;14.48;7.53;;;;;;;5.17;55.14;101571.28;5113279;28;20474;-76
2023/01/29 00:21:18;;;;;;;14.98;7.55;;;;;;;5.01;55.21;101570.75;5114150;28;20547;-76
2023/01/29 00:23:44;;;;;;;14.85;6.68;;;;;;;5.06;55.81;101570.38;5112464;28;20777;-76
2023/01/29 00:26:11;;;;;;;13.30;7.50;;;;;;;5.15;55.38;101580.25;5114092;28;20474;-76
2023/01/29 00:28:36;;;;;;;12.80;7.00;;;;;;;5.18;55.77;101574.75;5114372;28;20870;-76
2023/01/29 00:31:17;;;;;;;13.10;7.50;;;;;;;5.25;55.07;101578.59;5114164;28;20415;-76
2023/01/29 00:33:43;;;;;;;11.93;6.15;;;;;;;5.07;55.47;101580.78;5114035;28;20406;-76
2023/01/29 00:36:11;;;;;;;13.07;7.03;;;;;;;5.09;55.14;101580.69;5114084;28;20882;-76
2023/01/29 00:38:37;;;;;;;13.03;6.80;;;;;;;5.20;55.16;101583.34;5113676;28;20426;-76
2023/01/29 00:46:33;;;;;;;11.35;5.88;;;;;;;5.42;54.91;101587.88;5113839;28;20867;-76
2023/01/29 00:48:59;;;;;;;13.40;6.03;;;;;;;5.50;54.54;101595.19;5113985;28;20482;-76
2023/01/29 00:51:24;;;;;;;10.27;5.93;;;;;;;5.52;54.33;101596.72;5113909;27;20452;-76
2023/01/29 00:53:50;;;;;;;12.80;6.20;;;;;;;5.40;54.79;101592.38;5113240;28;20391;-76
2023/01/29 00:56:15;;;;;;;11.77;6.53;;;;;;;5.48;54.37;101599.72;5113249;28;20403;-76
2023/01/29 00:58:41;;;;;;;11.80;6.30;;;;;;;5.36;54.79;101596.22;5113722;28;20395;-76
2023/01/29 01:01:06;;;;;;;12.40;6.70;;;;;;;5.44;54.89;101596.47;5113587;27;20421;-75
2023/01/29 01:03:34;;;;;;;11.93;5.97;;;;;;;5.38;54.36;101589.03;5113725;28;20666;-76
2023/01/29 01:06:04;;;;;;;12.90;5.88;;;;;;;5.31;54.93;101604.44;5112558;28;20391;-76
2023/01/29 01:11:14;;;;;;;10.35;5.65;;;;;;;5.32;54.99;101606.13;5116356;28;20774;-75
2023/01/29 01:13:39;;;;;;;9.23;5.20;;;;;;;5.17;55.10;101608.09;5118642;28;20387;-76
2023/01/29 01:16:13;;;;;;;7.50;4.60;;;;;;;5.15;54.69;101599.47;5114447;28;20981;-76
2023/01/29 01:18:39;;;;;;;9.93;5.13;;;;;;;5.20;55.32;101598.28;5113598;28;20944;-76
2023/01/29 01:21:04;;;;;;;6.25;4.72;;;;;;;5.30;55.18;101604.56;5113715;28;20387;-76
2023/01/29 01:23:30;;;;;;;9.52;4.82;;;;;;;5.19;54.92;101607.16;5113217;28;20520;-76
2023/01/29 01:25:55;;;;;;;8.63;5.27;;;;;;;5.09;55.29;101610.44;5113793;28;20447;-76
2023/01/29 01:28:21;;;;;;;7.57;4.77;;;;;;;5.03;55.13;101608.25;5116210;28;20383;-76
2023/01/29 01:30:46;;;;;;;7.07;4.60;;;;;;;5.01;55.34;101607.53;5117845;28;20763;-76
2023/01/29 01:33:12;;;;;;;7.38;4.40;;;;;;;4.95;55.58;101594.81;5114448;28;20764;-76
2023/01/29 01:35:39;;;;;;;5.67;4.13;;;;;;;4.96;55.22;101607.03;5113770;28;20864;-76
2023/01/29 01:38:05;;;;;;;5.00;3.90;;;;;;;4.84;55.91;101614.00;5113394;28;20770;-76
2023/01/29 01:40:31;;;;;;;5.73;4.03;;;;;;;4.93;55.19;101600.22;5113190;28;20876;-76
2023/01/29 01:42:59;;;;;;;6.17;3.83;;;;;;;5.00;55.49;101605.84;5113030;28;20383;-76
2023/01/29 01:45:27;;;;;;;6.78;3.88;;;;;;;4.83;55.87;101601.81;5113331;28;20849;-76
2023/01/29 01:47:59;;;;;;;5.13;3.85;;;;;;;4.88;55.86;101601.47;5113269;28;20470;-76
2023/01/29 01:50:48;;;;;;;7.63;4.65;;;;;;;4.87;55.58;101611.16;5112309;28;20390;-76
2023/01/29 01:53:38;;;;;;;9.20;4.88;;;;;;;5.01;55.34;101601.44;5113071;28;20720;-76
2023/01/29 01:56:15;;;;;;;8.07;5.13;;;;;;;5.13;55.45;101609.28;5112590;28;20918;-76
2023/01/29 01:59:01;;;;;;;6.67;4.53;;;;;;;5.21;55.40;101607.88;5112067;28;20498;-77
2023/01/29 02:01:27;;;;;;;7.03;4.75;;;;;;;5.03;55.13;101607.44;5112574;28;20391;-76
2023/01/29 02:09:59;;;;;;;21.15;11.25;;;;;;;5.38;55.38;101611.88;5112469;28;20922;-76
2023/01/29 02:12:27;;;;;;;7.75;5.28;;;;;;;5.47;55.02;101612.00;5099731;28;21131;-76
2023/01/29 02:14:53;;;;;;;7.10;4.60;;;;;;;5.48;54.83;101618.13;5112694;28;20878;-76
2023/01/29 02:17:19;;;;;;;7.35;4.90;;;;;;;5.55;54.50;101619.34;5112506;28;20399;-76
2023/01/29 02:20:03;;;;;;;6.28;4.63;;;;;;;5.57;54.61;101616.59;5112277;27;20387;-76
2023/01/29 02:22:54;;;;;;;9.80;6.05;;;;;;;5.51;54.54;101612.63;5110858;28;20379;-76
2023/01/29 02:25:39;;;;;;;10.07;6.38;;;;;;;5.60;54.69;101624.25;5105041;28;20770;-76
2023/01/29 02:28:26;;;;;;;6.97;5.00;;;;;;;5.45;54.48;101613.09;5110738;28;20466;-76
2023/01/29 02:31:10;;;;;;;5.97;4.77;;;;;;;5.36;54.54;101611.97;5110362;28;20418;-77
2023/01/29 02:34:11;;;;;;;7.28;4.70;;;;;;;5.46;55.07;101612.97;5111528;28;20375;-76
2023/01/29 02:36:49;;;;;;;6.30;4.55;;;;;;;5.50;54.76;101616.22;5101754;28;20399;-76
2023/01/29 02:39:44;;;;;;;7.17;5.43;;;;;;;5.51;54.47;101618.75;5103514;28;20491;-76
2023/01/29 02:42:26;;;;;;;5.63;4.37;;;;;;;5.54;54.50;101623.75;5111621;28;20544;-76
2023/01/29 02:45:03;;;;;;;7.15;4.32;;;;;;;5.43;54.27;101610.56;5112057;28;20524;-76
2023/01/29 02:47:43;;;;;;;5.45;4.38;;;;;;;5.44;54.71;101619.28;5111541;28;20380;-76
2023/01/29 02:50:19;;;;;;;6.72;4.15;;;;;;;5.47;54.05;101619.91;5110745;28;20479;-76
2023/01/29 02:52:55;;;;;;;6.47;4.13;;;;;;;5.45;54.14;101626.25;5111542;28;20384;-76
2023/01/29 02:56:13;;;;;;;6.35;4.22;;;;;;;5.43;54.05;101622.88;5110751;28;20387;-76
2023/01/29 02:58:44;;;;;;;6.47;4.20;;;;;;;5.46;54.10;101620.03;5097684;28;20443;-76
2023/01/29 03:01:20;;;;;;;5.70;3.47;;;;;;;5.43;54.13;101623.72;5114582;28;20573;-76
2023/01/29 03:03:51;;;;;;;5.40;3.60;;;;;;;5.44;53.76;101617.53;5111266;28;20557;-76
2023/01/29 03:06:23;;;;;;;6.80;4.40;;;;;;;5.41;54.00;101617.75;5111232;28;20390;-76
2023/01/29 03:08:59;;;;;;;7.20;4.45;;;;;;;5.44;53.85;101619.28;5111169;28;20383;-76
2023/01/29 03:11:29;;;;;;;7.38;4.07;;;;;;;5.44;54.07;101621.91;5110286;28;20384;-76
2023/01/29 03:14:17;;;;;;;7.70;4.45;;;;;;;5.41;54.05;101619.53;5110862;28;20376;-76
2023/01/29 03:16:50;;;;;;;6.07;4.00;;;;;;;5.41;53.84;101612.47;5116701;28;20395;-76
2023/01/29 03:19:30;;;;;;;5.22;3.78;;;;;;;5.44;54.21;101614.88;5110682;28;20384;-76
2023/01/29 03:21:58;;;;;;;5.78;3.70;;;;;;;5.39;53.94;101609.13;5111024;28;20466;-76
2023/01/29 03:33:28;;;;;;;6.65;4.40;;;;;;;5.60;53.28;101626.88;5111455;28;20935;-75
2023/01/29 03:36:08;;;;;;;6.63;4.38;;;;;;;5.59;53.29;101628.69;5110894;28;20397;-75
2023/01/29 03:38:33;;;;;;;6.85;4.47;;;;;;;5.57;53.82;101627.97;5111363;28;20387;-75
2023/01/29 03:41:03;;;;;;;7.50;6.57;;;;;;;5.53;53.57;101632.59;5111070;28;20879;-75
2023/01/29 03:43:51;;;;;;;7.00;4.35;;;;;;;5.50;53.96;101624.13;5110333;28;20886;-75
2023/01/29 03:46:22;;;;;;;12.20;7.03;;;;;;;5.50;53.90;101624.94;5111406;28;20697;-75
2023/01/29 03:48:58;;;;;;;8.98;5.90;;;;;;;5.41;53.75;101627.44;5115068;28;20386;-75
2023/01/29 03:51:33;;;;;;;9.25;6.50;;;;;;;5.29;53.98;101631.78;5115351;28;20411;-75
2023/01/29 03:53:58;;;;;;;7.70;4.72;;;;;;;5.25;54.10;101622.47;5115145;28;20415;-75
2023/01/29 03:56:47;;;;;;;6.45;4.38;;;;;;;5.26;54.10;101622.34;5114145;28;20487;-75
2023/01/29 03:59:38;;;;;;;7.43;5.13;;;;;;;5.38;53.99;101627.66;5115037;28;20481;-75
2023/01/29 04:02:12;;;;;;;8.95;6.75;;;;;;;5.32;54.00;101628.94;5115512;28;20863;-75
2023/01/29 04:04:44;;;;;;;6.55;5.80;;;;;;;5.29;54.31;101622.09;5105767;28;20379;-75
2023/01/29 04:07:22;;;;;;;6.88;5.13;;;;;;;5.36;54.21;101631.22;5115313;28;20375;-75
2023/01/29 04:09:57;;;;;;;7.18;5.20;;;;;;;5.33;54.18;101631.47;5115347;28;20956;-75
2023/01/29 04:12:29;;;;;;;8.68;5.10;;;;;;;5.09;54.75;101636.72;5115258;28;20406;-76
2023/01/29 04:14:58;;;;;;;7.03;4.80;;;;;;;5.18;54.64;101629.94;5106142;28;20394;-75
2023/01/29 04:17:33;;;;;;;8.23;4.40;;;;;;;5.12;54.59;101633.88;5114767;27;20418;-75
2023/01/29 04:20:00;;;;;;;6.97;4.25;;;;;;;5.07;54.91;101637.78;5115031;28;20475;-75
2023/01/29 04:22:31;;;;;;;7.70;4.28;;;;;;;5.07;54.35;101638.63;5115124;28;20511;-75
2023/01/29 04:25:01;;;;;;;9.30;4.50;;;;;;;5.11;54.22;101647.13;5114834;28;20380;-76
2023/01/29 04:27:49;;;;;;;6.45;4.40;;;;;;;5.11;54.36;101644.47;5114497;28;20378;-76
2023/01/29 04:30:39;;;;;;;8.20;5.32;;;;;;;5.29;54.15;101651.03;5114056;28;21963;-75
2023/01/29 04:33:20;;;;;;;6.30;4.30;;;;;;;5.31;54.18;101650.91;5114625;28;20418;-75
2023/01/29 04:36:00;;;;;;;7.05;4.90;;;;;;;5.24;54.17;101647.91;5114188;28;20895;-75
2023/01/29 04:38:51;;;;;;;7.28;4.85;;;;;;;5.22;54.47;101647.19;5114128;28;20437;-75
2023/01/29 04:41:50;;;;;;;10.68;7.32;;;;;;;5.29;54.43;101651.03;5111267;28;20383;-75
2023/01/29 04:44:48;;;;;;;8.75;5.30;;;;;;;5.20;53.97;101654.31;5110229;28;20392;-75
2023/01/29 04:47:43;;;;;;;8.48;5.93;;;;;;;5.24;54.65;101652.31;5114029;28;20815;-76
2023/01/29 04:50:39;;;;;;;9.43;5.93;;;;;;;5.27;54.53;101655.56;5114223;27;20388;-75
2023/01/29 04:53:36;;;;;;;6.82;4.68;;;;;;;5.31;54.17;101667.53;5114406;28;20380;-75
2023/01/29 04:56:14;;;;;;;6.53;4.45;;;;;;;5.06;54.73;101657.97;5060466;28;20831;-75
2023/01/29 04:58:53;;;;;;;6.82;4.65;;;;;;;5.15;54.59;101665.19;5112959;28;20407;-75
2023/01/29 05:01:19;;;;;;;6.55;5.20;;;;;;;5.24;54.59;101671.56;5116497;28;20927;-75
2023/01/29 05:03:49;;;;;;;7.88;5.75;;;;;;;5.21;54.39;101665.69;5115354;28;20724;-76
2023/01/29 05:06:17;;;;;;;7.18;4.95;;;;;;;5.22;54.22;101670.84;5108231;28;20915;-75
2023/01/29 05:08:44;;;;;;;7.60;5.20;;;;;;;5.13;54.70;101677.59;5113688;28;20402;-75
2023/01/29 05:11:10;;;;;;;7.32;5.03;;;;;;;4.98;55.03;101674.28;5114254;28;20387;-75
2023/01/29 05:13:39;;;;;;;16.50;8.43;;;;;;;5.01;55.04;101678.47;5113901;28;20380;-75
2023/01/29 05:16:12;;;;;;;8.23;5.43;;;;;;;5.04;54.95;101672.16;5113495;28;20440;-76
2023/01/29 05:18:39;;;;;;;9.15;5.57;;;;;;;5.12;55.15;101675.91;5113778;28;20744;-75
2023/01/29 05:21:06;;;;;;;6.72;5.20;;;;;;;5.07;54.88;101678.03;5113599;28;20387;-76
2023/01/29 05:23:32;;;;;;;10.65;5.70;;;;;;;5.14;54.73;101683.69;5113001;28;20470;-76
2023/01/29 05:25:58;;;;;;;11.20;7.43;;;;;;;5.14;54.75;101675.81;5113906;28;20535;-76
2023/01/29 05:28:23;;;;;;;11.70;7.53;;;;;;;5.13;54.98;101680.25;5112950;28;20677;-76
2023/01/29 05:30:52;;;;;;;25.23;22.40;;;;;;;5.13;54.44;101684.63;5112952;27;20414;-76
2023/01/29 05:33:26;;;;;;;10.07;6.28;;;;;;;5.18;54.94;101693.03;5112601;28;20390;-76
2023/01/29 05:35:52;;;;;;;10.65;6.57;;;;;;;5.13;55.01;101682.00;5113568;27;20402;-76
2023/01/29 05:38:18;;;;;;;11.67;7.60;;;;;;;5.06;54.90;101686.88;5113288;28;20399;-76
2023/01/29 05:40:44;;;;;;;14.15;9.18;;;;;;;5.00;54.98;101683.84;5113821;28;20392;-76
2023/01/29 05:43:18;;;;;;;11.20;7.00;;;;;;;5.10;55.00;101685.72;5113602;28;20390;-76
2023/01/29 05:46:00;;;;;;;11.38;7.65;;;;;;;5.25;55.17;101694.25;5111538;28;20383;-76
2023/01/29 05:48:31;;;;;;;12.82;8.70;;;;;;;5.22;54.88;101693.66;5098941;28;20380;-76
2023/01/29 05:51:00;;;;;;;12.67;8.23;;;;;;;5.17;54.69;101686.94;5113597;28;20386;-76
2023/01/29 05:53:28;;;;;;;12.95;7.72;;;;;;;5.13;54.95;101689.88;5113294;28;20445;-76
2023/01/29 05:55:55;;;;;;;25.73;15.00;;;;;;;5.14;54.97;101697.66;5113071;28;20383;-76
2023/01/29 05:58:22;;;;;;;12.02;7.75;;;;;;;5.16;54.92;101702.81;5112771;28;20915;-76
2023/01/29 06:00:47;;;;;;;19.08;11.23;;;;;;;5.13;54.82;101692.50;5110120;28;20532;-76
2023/01/29 06:03:13;;;;;;;16.03;10.60;;;;;;;5.10;55.14;101696.22;5101984;28;20468;-76
2023/01/29 06:05:39;;;;;;;18.07;12.23;;;;;;;5.11;55.27;101718.94;5104784;28;20471;-76
2023/01/29 06:08:05;;;;;;;29.30;22.63;;;;;;;5.11;54.69;101708.41;5111764;28;20546;-76
2023/01/29 06:10:30;;;;;;;23.45;16.23;;;;;;;5.11;54.81;101715.44;5112086;28;20391;-76
2023/01/29 06:12:56;;;;;;;24.20;18.73;;;;;;;5.07;54.71;101716.63;5112651;28;20379;-76
2023/01/29 06:15:21;;;;;;;22.87;16.40;;;;;;;5.09;54.62;101720.81;5112769;28;20386;-76
2023/01/29 06:17:47;;;;;;;19.90;13.48;;;;;;;5.03;55.25;101723.06;5111550;28;20944;-77
2023/01/29 06:20:12;;;;;;;24.73;16.30;;;;;;;5.02;55.07;101724.81;5112857;27;20388;-76
2023/01/29 06:22:38;;;;;;;23.37;13.90;;;;;;;5.02;55.07;101730.06;5113043;28;20379;-76
2023/01/29 06:25:04;;;;;;;25.53;19.47;;;;;;;5.01;55.38;101725.78;5112396;28;20389;-76
2023/01/29 06:27:29;;;;;;;25.13;16.60;;;;;;;5.00;55.09;101729.34;5112115;28;20386;-76
2023/01/29 06:29:55;;;;;;;31.57;22.43;;;;;;;5.02;55.04;101745.84;5115614;27;20407;-76
2023/01/29 06:32:20;;;;;;;21.47;13.03;;;;;;;4.97;54.81;101737.47;5113320;28;20388;-76
2023/01/29 06:34:46;;;;;;;25.13;18.23;;;;;;;4.98;55.36;101749.63;5112151;28;20384;-76
2023/01/29 06:37:11;;;;;;;22.45;13.63;;;;;;;4.93;55.15;101744.72;5112088;28;20918;-77
2023/01/29 06:39:37;;;;;;;15.07;10.37;;;;;;;4.90;55.18;101750.19;5112623;28;20395;-76
2023/01/29 06:42:02;;;;;;;18.43;11.53;;;;;;;4.91;55.25;101759.72;5112038;28;20376;-75
2023/01/29 06:44:28;;;;;;;16.42;10.60;;;;;;;4.89;54.84;101748.50;5111075;28;20390;-76
2023/01/29 06:46:53;;;;;;;15.33;9.20;;;;;;;4.97;55.30;101753.25;5113012;28;20379;-76
2023/01/29 06:49:19;;;;;;;16.47;10.43;;;;;;;4.96;54.77;101751.53;5112624;28;20852;-75
2023/01/29 06:51:44;;;;;;;21.10;11.17;;;;;;;5.06;54.88;101770.13;5112167;28;20486;-76
2023/01/29 06:54:10;;;;;;;16.38;10.07;;;;;;;5.06;55.07;101776.25;5111750;28;20403;-77
2023/01/29 06:56:35;;;;;;;18.50;11.30;;;;;;;5.04;55.42;101777.28;5111842;27;20392;-77
2023/01/29 06:59:01;;;;;;;29.87;17.97;;;;;;;5.04;55.48;101777.28;5112391;28;20382;-77
2023/01/29 07:01:27;;;;;;;29.77;17.42;;;;;;;5.06;55.34;101772.75;5112159;28;20763;-77
2023/01/29 07:03:52;;;;;;;23.67;13.77;;;;;;;5.05;55.09;101769.28;5112399;28;20378;-76
2023/01/29 07:06:18;;;;;;;26.73;16.07;;;;;;;5.02;55.63;101766.88;5112282;28;20746;-76
2023/01/29 07:08:44;;;;;;;50.10;26.40;;;;;;;5.06;55.64;101776.25;5110971;28;20372;-76
2023/01/29 07:11:10;;;;;;;45.42;23.50;;;;;;;4.94;55.75;101774.47;5111392;28;20456;-75
2023/01/29 07:13:35;;;;;;;19.77;11.97;;;;;;;5.07;56.04;101777.06;5111500;28;20368;-76
2023/01/29 07:16:03;;;;;;;23.30;14.63;;;;;;;5.12;55.63;101781.03;5112181;28;20367;-76
2023/01/29 07:18:29;;;;;;;28.20;18.05;;;;;;;5.18;55.77;101771.88;5112272;28;20898;-76
2023/01/29 07:20:55;;;;;;;22.60;14.30;;;;;;;5.24;55.26;101773.22;5111647;28;20387;-76
2023/01/29 07:23:21;;;;;;;20.42;12.05;;;;;;;5.30;55.28;101778.06;5111935;28;20778;-76
2023/01/29 07:25:48;;;;;;;17.85;11.82;;;;;;;5.38;55.60;101777.53;5112059;28;20876;-76
2023/01/29 07:28:15;;;;;;;21.10;11.97;;;;;;;5.39;55.59;101771.31;5111965;28;20376;-75
2023/01/29 07:30:40;;;;;;;30.08;19.40;;;;;;;5.50;55.47;101771.38;5112193;28;20407;-75
2023/01/29 07:33:07;;;;;;;27.48;16.63;;;;;;;5.59;55.51;101770.72;5112954;28;20375;-76
2023/01/29 07:35:41;;;;;;;31.98;18.08;;;;;;;5.79;55.45;101771.88;5108794;28;20547;-75
2023/01/29 07:38:08;;;;;;;24.90;16.20;;;;;;;5.79;55.53;101766.63;5110321;28;20475;-76
2023/01/29 07:40:34;;;;;;;25.90;15.65;;;;;;;5.88;55.12;101767.75;5109347;28;20751;-77
2023/01/29 07:43:02;;;;;;;16.27;9.82;;;;;;;6.03;55.16;101778.94;5109725;28;20442;-77
2023/01/29 07:45:28;;;;;;;17.52;10.27;;;;;;;5.96;55.08;101782.97;5110886;28;20447;-75
2023/01/29 07:47:55;;;;;;;23.57;14.90;;;;;;;5.74;55.15;101780.13;5111069;28;20483;-77
2023/01/29 07:50:25;;;;;;;22.03;13.10;;;;;;;6.02;54.98;101793.06;5111494;28;20384;-76
2023/01/29 07:52:50;;;;;;;11.60;7.00;;;;;;;5.67;54.72;101792.06;5111496;28;20379;-76
2023/01/29 07:55:16;;;;;;;17.20;10.70;;;;;;;5.58;55.17;101797.13;5110113;28;20456;-76
2023/01/29 07:57:42;;;;;;;13.88;9.43;;;;;;;5.81;55.17;101793.66;5111677;28;20904;-76
2023/01/29 08:00:10;;;;;;;15.10;7.88;;;;;;;5.91;55.05;101801.72;5103944;28;20424;-75
2023/01/29 08:02:36;;;;;;;17.08;10.15;;;;;;;5.81;54.75;101791.03;5110908;28;20741;-75
2023/01/29 08:05:02;;;;;;;16.58;9.07;;;;;;;5.75;54.64;101794.94;5110459;28;20387;-76
2023/01/29 08:07:27;;;;;;;24.52;12.80;;;;;;;5.87;54.72;101797.63;5107132;28;20383;-75
2023/01/29 08:09:53;;;;;;;18.40;10.10;;;;;;;5.76;54.56;101795.78;5099033;28;20387;-76
2023/01/29 08:12:18;;;;;;;17.67;10.37;;;;;;;5.81;54.78;101808.59;5098021;28;20398;-77
2023/01/29 08:14:44;;;;;;;13.77;7.60;;;;;;;5.78;54.54;101806.19;5103552;28;20384;-76
2023/01/29 08:17:11;;;;;;;16.80;9.90;;;;;;;5.90;54.81;101803.50;5101591;28;20480;-76
2023/01/29 08:19:36;;;;;;;16.10;9.05;;;;;;;5.89;54.66;101804.47;5109820;28;20375;-76
2023/01/29 08:22:03;;;;;;;13.13;7.93;;;;;;;6.00;54.49;101795.81;5109589;28;20380;-76
2023/01/29 08:24:29;;;;;;;19.50;10.90;;;;;;;6.04;54.46;101789.38;5104437;28;20389;-77
2023/01/29 08:26:54;;;;;;;12.40;6.90;;;;;;;5.83;54.72;101807.53;5110510;28;20387;-76
2023/01/29 08:29:20;;;;;;;16.90;10.18;;;;;;;6.02;54.54;101809.69;5110292;28;20496;-77
2023/01/29 08:31:45;;;;;;;17.33;9.60;;;;;;;6.26;54.19;101806.19;5107668;28;20380;-76
2023/01/29 08:34:11;;;;;;;19.27;9.27;;;;;;;6.29;54.12;101811.25;5110879;28;20994;-76
2023/01/29 08:36:36;;;;;;;13.48;6.60;;;;;;;5.96;53.71;101817.19;5112135;28;20399;-76
2023/01/29 08:39:02;;;;;;;18.33;9.77;;;;;;;5.76;53.87;101806.31;5106349;28;20371;-76
2023/01/29 08:41:27;;;;;;;17.87;9.50;;;;;;;5.73;54.17;101815.28;5114759;28;20383;-76
2023/01/29 08:43:53;;;;;;;14.73;7.83;;;;;;;5.84;53.81;101811.84;5114897;28;20474;-77
2023/01/29 08:46:18;;;;;;;20.13;10.85;;;;;;;5.83;54.29;101807.53;5111067;28;20372;-75
2023/01/29 08:48:44;;;;;;;16.43;9.30;;;;;;;6.16;53.85;101816.59;5113191;28;20380;-76
2023/01/29 08:51:09;;;;;;;15.70;8.83;;;;;;;6.35;53.56;101810.75;5111428;28;20372;-76
2023/01/29 08:53:35;;;;;;;16.13;8.75;;;;;;;6.61;53.55;101819.34;5110304;28;20462;-76
2023/01/29 08:56:00;;;;;;;17.35;8.98;;;;;;;6.47;53.04;101811.66;5110510;28;20380;-76
2023/01/29 08:58:26;;;;;;;18.03;9.03;;;;;;;6.45;53.19;101813.56;5109368;28;20749;-77
2023/01/29 09:00:51;;;;;;;14.93;8.90;;;;;;;6.57;52.80;101822.31;5110007;28;20434;-77
2023/01/29 09:03:17;;;;;;;15.98;8.70;;;;;;;6.54;53.27;101822.56;5107353;28;20515;-76
2023/01/29 09:05:42;;;;;;;18.60;8.73;;;;;;;6.48;53.14;101824.72;5105154;28;20380;-77
2023/01/29 09:08:08;;;;;;;15.40;7.60;;;;;;;6.36;52.53;101812.47;5112370;28;20453;-77
2023/01/29 09:10:34;;;;;;;15.95;9.27;;;;;;;6.72;52.81;101818.53;5113158;28;20363;-77
2023/01/29 09:13:00;;;;;;;12.77;7.65;;;;;;;6.61;52.60;101819.34;5113016;28;20383;-77
2023/01/29 09:15:26;;;;;;;15.25;9.00;;;;;;;6.66;52.96;101822.47;5112591;28;20368;-77
2023/01/29 09:17:51;;;;;;;16.27;9.23;;;;;;;6.88;52.76;101815.56;5113696;28;20488;-76
2023/01/29 09:20:18;;;;;;;15.77;8.80;;;;;;;6.97;51.96;101820.13;5114418;28;20378;-76
2023/01/29 09:22:44;;;;;;;16.38;8.55;;;;;;;6.83;51.90;101815.06;5113754;28;20856;-77
2023/01/29 09:25:10;;;;;;;9.73;5.97;;;;;;;6.58;51.72;101809.03;5114023;28;20371;-77
2023/01/29 09:27:35;;;;;;;12.40;7.87;;;;;;;6.49;53.00;101813.19;5114187;28;20859;-77
2023/01/29 09:30:01;;;;;;;13.37;8.43;;;;;;;6.50;52.67;101806.16;5114139;28;20408;-77
2023/01/29 09:32:29;;;;;;;16.10;9.73;;;;;;;6.85;52.50;101799.97;5114256;28;20379;-77
2023/01/29 09:34:55;;;;;;;10.82;6.32;;;;;;;6.62;51.96;101810.47;5114313;28;20360;-76
2023/01/29 09:37:22;;;;;;;14.70;8.70;;;;;;;6.70;52.44;101796.72;5113870;28;20433;-75
2023/01/29 09:39:48;;;;;;;19.93;10.07;;;;;;;6.98;52.16;101803.31;5112755;28;20448;-76
2023/01/29 09:42:40;;;;;;;18.33;8.88;;;;;;;6.98;52.22;101803.31;5113780;28;20387;-76
2023/01/29 09:45:05;;;;;;;14.10;7.18;;;;;;;6.81;51.65;101803.81;5112886;28;20372;-77
2023/01/29 09:47:34;;;;;;;12.90;6.25;;;;;;;6.26;51.89;101793.03;5114730;28;20432;-76
2023/01/29 09:50:12;;;;;;;13.02;7.13;;;;;;;6.26;52.04;101799.13;5114259;28;20387;-76
2023/01/29 09:52:44;;;;;;;16.13;9.13;;;;;;;6.51;52.00;101789.38;5113530;28;20404;-76
2023/01/29 09:55:13;;;;;;;18.83;9.50;;;;;;;6.59;51.60;101784.38;5111982;28;20454;-76
2023/01/29 09:57:55;;;;;;;15.57;8.95;;;;;;;6.66;51.68;101790.84;5113063;28;20407;-76
2023/01/29 10:00:34;;;;;;;19.42;9.68;;;;;;;6.83;51.83;101789.53;5113819;28;20360;-76
2023/01/29 10:03:11;;;;;;;18.87;10.30;;;;;;;6.83;51.56;101781.63;5113469;28;20368;-76
2023/01/29 10:05:49;;;;;;;15.10;7.95;;;;;;;6.84;51.67;101775.41;5112268;28;20437;-75
2023/01/29 10:09:08;;;;;;;21.47;11.47;;;;;;;6.88;52.21;101770.75;5110744;28;20455;-75
2023/01/29 10:11:42;;;;;;;15.32;8.13;;;;;;;7.04;51.41;101773.00;5045045;28;20395;-76
2023/01/29 10:14:08;;;;;;;16.20;8.93;;;;;;;7.17;51.69;101760.53;5091656;28;20379;-76
2023/01/29 10:16:58;;;;;;;11.63;6.90;;;;;;;7.12;51.09;101754.78;5111507;28;20966;-75
2023/01/29 10:19:45;;;;;;;15.15;8.90;;;;;;;7.28;51.20;101749.13;5113982;28;20896;-77
2023/01/29 10:22:37;;;;;;;16.05;9.82;;;;;;;7.42;50.74;101745.41;5110593;28;20470;-77
2023/01/29 10:25:05;;;;;;;18.00;11.27;;;;;;;7.34;50.74;101737.25;5107031;28;20759;-76
2023/01/29 10:27:37;;;;;;;15.15;9.32;;;;;;;7.53;51.09;101739.25;5114292;28;20840;-76
2023/01/29 10:30:08;;;;;;;15.38;9.45;;;;;;;7.35;51.11;101734.50;5111722;28;20760;-77
2023/01/29 10:32:35;;;;;;;12.40;7.25;;;;;;;7.34;51.81;101727.53;5111677;28;20376;-77
2023/01/29 10:35:12;;;;;;;16.25;8.50;;;;;;;7.45;51.48;101722.25;5112500;28;20375;-78
2023/01/29 10:37:42;;;;;;;13.03;7.90;;;;;;;7.68;50.49;101721.31;5108261;28;20407;-77
2023/01/29 10:40:21;;;;;;;13.07;8.60;;;;;;;8.02;51.63;101716.72;5111627;28;20432;-77
2023/01/29 10:42:59;;;;;;;18.27;9.32;;;;;;;7.96;50.36;101717.22;5112089;28;20379;-77
2023/01/29 10:45:27;;;;;;;14.77;7.80;;;;;;;7.81;49.46;101719.31;5111251;28;20932;-76
2023/01/29 10:48:23;;;;;;;12.75;7.80;;;;;;;7.76;49.85;101729.44;5112442;28;20392;-76
2023/01/29 10:50:51;;;;;;;14.15;7.85;;;;;;;7.30;50.49;101720.84;5109906;28;20437;-78
2023/01/29 10:53:34;;;;;;;14.40;8.65;;;;;;;7.54;50.40;101728.53;5111862;28;20714;-77
2023/01/29 10:56:28;;;;;;;16.60;8.02;;;;;;;7.09;50.47;101720.75;5110992;28;20947;-77
2023/01/29 10:58:58;;;;;;;13.90;7.57;;;;;;;7.08;49.73;101719.09;5112111;28;20404;-76
2023/01/29 11:01:25;;;;;;;12.07;6.88;;;;;;;6.95;50.13;101706.03;5113504;28;20402;-81
2023/01/29 11:04:00;;;;;;;13.32;6.22;;;;;;;7.03;49.95;101711.53;5114067;28;20379;-80
2023/01/29 11:06:34;;;;;;;14.90;7.18;;;;;;;6.80;50.59;101699.34;5111894;28;20383;-79
2023/01/29 11:09:19;;;;;;;18.27;10.55;;;;;;;6.59;51.16;101715.03;5112661;28;20391;-79
2023/01/29 11:11:53;;;;;;;15.73;9.35;;;;;;;6.49;51.01;101699.94;5114146;28;20472;-79
2023/01/29 11:14:27;;;;;;;11.65;6.80;;;;;;;6.34;50.43;101708.19;5114776;28;20885;-82
2023/01/29 11:16:54;;;;;;;16.40;8.77;;;;;;;6.51;50.72;101705.09;5111268;28;20395;-81
2023/01/29 11:19:40;;;;;;;16.10;10.10;;;;;;;6.70;50.74;101702.69;5114435;28;20459;-80
2023/01/29 11:22:15;;;;;;;16.25;8.52;;;;;;;6.74;50.16;101694.56;5110994;28;20405;-80
2023/01/29 11:24:41;;;;;;;18.63;10.48;;;;;;;6.80;50.21;101688.78;5111077;28;20479;-81
2023/01/29 11:27:24;;;;;;;14.00;7.83;;;;;;;6.70;50.15;101683.44;5103749;28;20555;-81
2023/01/29 11:29:52;;;;;;;14.95;9.50;;;;;;;6.77;49.98;101689.03;5113005;28;20415;-80
2023/01/29 11:32:20;;;;;;;12.00;7.73;;;;;;;6.66;50.42;101689.88;5114654;28;20430;-82
2023/01/29 11:35:06;;;;;;;13.93;8.10;;;;;;;6.54;50.45;101678.50;5114169;28;20391;-80
2023/01/29 11:37:35;;;;;;;13.20;8.30;;;;;;;6.51;49.76;101676.13;5103744;28;20459;-80
2023/01/29 11:40:01;;;;;;;12.47;7.77;;;;;;;6.57;49.94;101675.66;5110730;28;20401;-80
2023/01/29 11:42:30;;;;;;;16.45;9.30;;;;;;;6.51;50.13;101684.00;5105310;28;20946;-80
2023/01/29 11:44:55;;;;;;;19.42;9.63;;;;;;;6.53;49.97;101676.00;5098001;28;20454;-79
2023/01/29 11:47:26;;;;;;;16.80;8.35;;;;;;;6.47;49.82;101679.94;5101220;28;20422;-81
2023/01/29 11:49:57;;;;;;;19.45;9.75;;;;;;;6.47;50.20;101669.41;5112622;28;20979;-80
2023/01/29 11:52:42;;;;;;;13.83;7.50;;;;;;;6.29;49.76;101690.94;5112712;28;20499;-79
2023/01/29 11:55:32;;;;;;;11.38;6.57;;;;;;;6.15;50.16;101696.44;5098895;28;20392;-82
2023/01/29 11:58:10;;;;;;;14.13;8.02;;;;;;;6.19;50.29;101691.75;5112506;28;20901;-79
2023/01/29 12:00:40;;;;;;;19.00;10.33;;;;;;;6.42;50.06;101698.72;5101399;28;20607;-80
2023/01/29 12:03:21;;;;;;;16.80;9.15;;;;;;;6.27;50.21;101684.13;5113395;28;20383;-80
2023/01/29 12:05:56;;;;;;;10.27;6.35;;;;;;;6.01;49.96;101676.41;5111351;28;20384;-81
2023/01/29 12:08:23;;;;;;;18.63;9.35;;;;;;;6.09;50.23;101673.22;5109083;28;20478;-79
2023/01/29 12:10:49;;;;;;;17.33;8.85;;;;;;;6.24;49.87;101679.09;5117534;28;20393;-80